createdAt,value
2018-12-15T00:01:41.995Z,0.50
2018-12-15T00:04:11.397Z,0.50
2018-12-15T00:06:40.678Z,0.50
2018-12-15T00:09:10.007Z,0.40
2018-12-15T00:11:39.297Z,0.30
2018-12-15T00:14:08.574Z,0.30
2018-12-15T00:16:37.837Z,0.20
2018-12-15T00:19:07.143Z,0.00
2018-12-15T00:21:36.521Z,0.00
2018-12-15T00:24:05.824Z,-0.30
2018-12-15T00:26:35.114Z,-0.30
2018-12-15T00:29:04.397Z,0.00
2018-12-15T00:31:33.669Z,0.20
2018-12-15T00:34:02.928Z,0.10
2018-12-15T00:36:32.192Z,0.20
2018-12-15T00:39:01.449Z,0.20
2018-12-15T00:41:30.696Z,0.20
2018-12-15T00:43:59.987Z,0.30
2018-12-15T00:46:29.221Z,0.20
2018-12-15T00:48:58.465Z,0.10
2018-12-15T00:51:27.695Z,0.20
2018-12-15T00:53:56.959Z,0.30
2018-12-15T00:56:26.187Z,0.30
2018-12-15T00:58:55.459Z,0.30
2018-12-15T01:01:24.737Z,0.30
2018-12-15T01:03:54.059Z,0.30
2018-12-15T01:06:23.372Z,0.40
2018-12-15T01:08:52.605Z,0.50
2018-12-15T01:11:21.869Z,0.50
2018-12-15T01:13:51.118Z,0.50
2018-12-15T01:16:20.361Z,0.40
2018-12-15T01:18:49.608Z,0.10
2018-12-15T01:21:18.856Z,0.20
2018-12-15T01:23:48.106Z,0.10
2018-12-15T01:26:17.401Z,0.30
2018-12-15T01:28:46.662Z,0.20
2018-12-15T01:31:15.904Z,-0.20
2018-12-15T01:33:45.173Z,0.00
2018-12-15T01:36:14.418Z,0.20
2018-12-15T01:38:43.706Z,0.40
2018-12-15T01:41:13.000Z,0.30
2018-12-15T01:43:42.229Z,0.20
2018-12-15T01:46:11.501Z,0.10
2018-12-15T01:48:40.876Z,0.10
2018-12-15T01:51:10.148Z,0.10
2018-12-15T01:53:39.410Z,0.20
2018-12-15T01:56:08.704Z,0.10
2018-12-15T01:58:37.941Z,0.00
2018-12-15T02:01:07.185Z,-0.20
2018-12-15T02:03:36.442Z,-0.30
2018-12-15T02:06:06.428Z,-0.20
2018-12-15T02:08:35.669Z,-0.10
2018-12-15T02:11:04.962Z,0.00
2018-12-15T02:13:34.204Z,0.10
2018-12-15T02:16:03.623Z,0.10
2018-12-15T02:18:32.846Z,0.30
2018-12-15T02:21:02.113Z,0.30
2018-12-15T02:23:31.375Z,0.30
2018-12-15T02:26:00.639Z,0.20
2018-12-15T02:28:37.365Z,0.20
2018-12-15T02:31:06.663Z,0.20
2018-12-15T02:33:35.888Z,0.10
2018-12-15T02:36:05.183Z,-0.20
2018-12-15T02:38:34.429Z,0.10
2018-12-15T02:41:03.677Z,0.30
2018-12-15T02:43:32.933Z,0.30
2018-12-15T02:46:02.316Z,0.30
2018-12-15T02:48:31.566Z,0.30
2018-12-15T02:51:00.840Z,0.40
2018-12-15T02:53:30.081Z,0.40
2018-12-15T02:55:59.314Z,0.40
2018-12-15T02:58:28.562Z,0.20
2018-12-15T03:00:57.819Z,0.10
2018-12-15T03:03:27.104Z,0.00
2018-12-15T03:05:56.355Z,0.20
2018-12-15T03:08:25.702Z,0.30
2018-12-15T03:10:54.940Z,0.30
2018-12-15T03:13:24.195Z,0.40
2018-12-15T03:15:53.428Z,0.40
2018-12-15T03:18:22.697Z,0.40
2018-12-15T03:21:00.432Z,0.50
2018-12-15T03:23:29.762Z,0.10
2018-12-15T03:25:59.109Z,-0.10
2018-12-15T03:28:28.362Z,-0.60
2018-12-15T03:30:57.658Z,-0.80
2018-12-15T03:33:27.002Z,-0.70
2018-12-15T03:35:56.238Z,-0.50
2018-12-15T03:38:25.539Z,-0.70
2018-12-15T03:40:54.800Z,-0.70
2018-12-15T03:43:24.072Z,-0.80
2018-12-15T03:45:53.303Z,-1.10
2018-12-15T03:48:22.529Z,-0.90
2018-12-15T03:50:51.753Z,-1.10
2018-12-15T03:53:21.013Z,-1.20
2018-12-15T03:55:50.301Z,-1.10
2018-12-15T03:58:19.586Z,-0.80
2018-12-15T04:00:48.834Z,-0.80
2018-12-15T04:03:18.168Z,-0.70
2018-12-15T04:05:47.425Z,-0.60
2018-12-15T04:08:16.677Z,-0.20
2018-12-15T04:10:45.957Z,-0.60
2018-12-15T04:13:15.180Z,-1.00
2018-12-15T04:15:44.436Z,-0.80
2018-12-15T04:18:13.674Z,-0.50
2018-12-15T04:20:42.960Z,-0.50
2018-12-15T04:23:12.208Z,-0.30
2018-12-15T04:25:41.486Z,-0.40
2018-12-15T04:28:10.721Z,-0.50
2018-12-15T04:30:39.998Z,-0.40
2018-12-15T04:33:09.228Z,-0.30
2018-12-15T04:35:38.451Z,-0.20
2018-12-15T04:38:07.752Z,-0.10
2018-12-15T04:40:37.284Z,0.10
2018-12-15T04:43:06.540Z,0.10
2018-12-15T04:45:35.804Z,-0.10
2018-12-15T04:48:11.078Z,0.00
2018-12-15T04:50:36.266Z,0.10
2018-12-15T04:53:05.534Z,0.10
2018-12-15T04:55:34.753Z,0.20
2018-12-15T04:58:04.013Z,-0.20
2018-12-15T05:00:33.289Z,-0.30
2018-12-15T05:03:02.669Z,-0.20
2018-12-15T05:05:31.950Z,0.10
2018-12-15T05:08:01.203Z,0.10
2018-12-15T05:10:30.446Z,0.10
2018-12-15T05:12:59.685Z,0.20
2018-12-15T05:15:28.923Z,0.00
2018-12-15T05:17:58.174Z,0.20
2018-12-15T05:20:27.441Z,0.20
2018-12-15T05:22:56.679Z,0.20
2018-12-15T05:25:25.923Z,0.10
2018-12-15T05:27:55.164Z,-0.60
2018-12-15T05:30:24.409Z,-0.40
2018-12-15T05:32:53.664Z,-0.20
2018-12-15T05:35:22.962Z,-0.10
2018-12-15T05:37:52.298Z,0.10
2018-12-15T05:40:21.554Z,-0.10
2018-12-15T05:42:50.799Z,-0.20
2018-12-15T05:45:20.073Z,-0.50
2018-12-15T05:47:49.326Z,-0.30
2018-12-15T05:50:18.586Z,-0.10
2018-12-15T05:52:47.821Z,-0.10
2018-12-15T05:55:17.205Z,-0.30
2018-12-15T05:57:46.449Z,-0.40
2018-12-15T06:00:15.706Z,-0.40
2018-12-15T06:02:45.485Z,-0.40
2018-12-15T06:05:15.110Z,-0.60
2018-12-15T06:07:44.682Z,-0.70
2018-12-15T06:10:13.937Z,-1.00
2018-12-15T06:12:43.168Z,-0.60
2018-12-15T06:15:12.482Z,-0.30
2018-12-15T06:17:41.720Z,-0.10
2018-12-15T06:20:10.989Z,-0.20
2018-12-15T06:22:40.233Z,-0.20
2018-12-15T06:25:09.511Z,0.00
2018-12-15T06:27:38.783Z,-0.20
2018-12-15T06:30:08.562Z,-0.30
2018-12-15T06:32:37.834Z,-0.10
2018-12-15T06:35:07.104Z,-0.30
2018-12-15T06:37:36.387Z,-0.20
2018-12-15T06:40:06.421Z,0.00
2018-12-15T06:42:35.692Z,-0.10
2018-12-15T06:45:05.786Z,-0.60
2018-12-15T06:47:35.072Z,-0.90
2018-12-15T06:50:05.533Z,-1.10
2018-12-15T06:52:34.803Z,-0.70
2018-12-15T06:55:04.264Z,-0.80
2018-12-15T06:57:33.529Z,-0.60
2018-12-15T07:00:02.790Z,-0.30
2018-12-15T07:02:32.042Z,-0.40
2018-12-15T07:05:01.289Z,-0.40
2018-12-15T07:07:30.547Z,-0.40
2018-12-15T07:09:59.797Z,-0.60
2018-12-15T07:12:29.070Z,-1.00
2018-12-15T07:14:58.327Z,-1.10
2018-12-15T07:17:27.544Z,-0.90
2018-12-15T07:19:56.764Z,-0.50
2018-12-15T07:22:26.190Z,-0.40
2018-12-15T07:24:55.445Z,-0.20
2018-12-15T07:27:24.697Z,0.00
2018-12-15T07:29:53.958Z,-0.30
2018-12-15T07:32:23.173Z,-0.30
2018-12-15T07:34:52.397Z,-0.20
2018-12-15T07:37:21.636Z,-0.30
2018-12-15T07:39:50.878Z,-0.40
2018-12-15T07:42:20.217Z,-0.20
2018-12-15T07:44:49.473Z,-0.10
2018-12-15T07:47:18.724Z,0.00
2018-12-15T07:49:48.062Z,0.20
2018-12-15T07:52:17.373Z,0.20
2018-12-15T07:54:46.625Z,0.10
2018-12-15T07:57:15.844Z,-0.20
2018-12-15T07:59:45.139Z,0.00
2018-12-15T08:02:14.376Z,0.20
2018-12-15T08:04:43.642Z,0.00
2018-12-15T08:07:13.199Z,0.00
2018-12-15T08:09:42.697Z,-0.20
2018-12-15T08:12:17.250Z,0.00
2018-12-15T08:14:46.680Z,0.10
2018-12-15T08:17:15.920Z,0.20
2018-12-15T08:19:45.181Z,0.20
2018-12-15T08:22:14.442Z,0.10
2018-12-15T08:24:44.147Z,0.10
2018-12-15T08:27:13.611Z,0.10
2018-12-15T08:29:42.845Z,0.30
2018-12-15T08:32:12.112Z,-0.10
2018-12-15T08:34:41.400Z,-0.30
2018-12-15T08:37:10.678Z,-0.20
2018-12-15T08:39:40.136Z,-0.10
2018-12-15T08:42:09.557Z,0.10
2018-12-15T08:44:38.811Z,0.10
2018-12-15T08:47:08.093Z,-0.20
2018-12-15T08:49:37.345Z,-0.10
2018-12-15T08:52:06.711Z,-0.10
2018-12-15T08:54:35.949Z,-0.10
2018-12-15T08:57:05.284Z,-0.50
2018-12-15T08:59:34.523Z,-0.30
2018-12-15T09:02:03.813Z,-0.20
2018-12-15T09:04:33.177Z,-0.10
2018-12-15T09:07:02.504Z,-0.30
2018-12-15T09:09:31.775Z,-0.20
2018-12-15T09:12:01.013Z,-0.30
2018-12-15T09:14:30.273Z,-0.20
2018-12-15T09:16:59.542Z,0.00
2018-12-15T09:19:28.858Z,-0.20
2018-12-15T09:21:58.153Z,0.00
2018-12-15T09:24:27.411Z,0.00
2018-12-15T09:26:56.774Z,0.00
2018-12-15T09:29:26.062Z,-0.20
2018-12-15T09:31:55.371Z,-0.30
2018-12-15T09:34:24.688Z,-0.40
2018-12-15T09:36:54.073Z,-0.20
2018-12-15T09:39:23.508Z,-0.20
2018-12-15T09:41:52.755Z,-0.20
2018-12-15T09:44:22.119Z,-0.10
2018-12-15T09:46:51.377Z,0.10
2018-12-15T09:49:20.694Z,0.10
2018-12-15T09:51:50.044Z,0.10
2018-12-15T09:54:19.421Z,0.10
2018-12-15T09:56:48.785Z,-0.10
2018-12-15T09:59:18.145Z,0.00
2018-12-15T10:01:47.676Z,-0.10
2018-12-15T10:04:16.982Z,-0.20
2018-12-15T10:06:46.394Z,0.10
2018-12-15T10:09:15.773Z,0.20
2018-12-15T10:11:45.045Z,-0.30
2018-12-15T10:14:14.310Z,-0.50
2018-12-15T10:16:43.601Z,-0.30
2018-12-15T10:19:12.913Z,0.00
2018-12-15T10:21:42.202Z,0.00
2018-12-15T10:24:11.520Z,0.10
2018-12-15T10:26:40.783Z,0.00
2018-12-15T10:29:14.334Z,0.00
2018-12-15T10:31:49.013Z,0.00
2018-12-15T10:34:18.274Z,-0.40
2018-12-15T10:36:47.533Z,-0.20
2018-12-15T10:39:16.810Z,-0.20
2018-12-15T10:41:46.089Z,-0.20
2018-12-15T10:44:15.379Z,0.00
2018-12-15T10:46:44.677Z,-0.20
2018-12-15T10:49:13.943Z,-0.40
2018-12-15T10:51:43.218Z,-0.30
2018-12-15T10:54:12.502Z,-0.60
2018-12-15T10:56:41.777Z,-0.50
2018-12-15T10:59:11.025Z,-0.40
2018-12-15T11:01:40.869Z,-0.50
2018-12-15T11:04:10.114Z,-0.40
2018-12-15T11:06:39.419Z,-0.50
2018-12-15T11:09:09.139Z,-0.20
2018-12-15T11:11:38.420Z,-0.10
2018-12-15T11:14:07.704Z,-0.20
2018-12-15T11:16:36.954Z,-0.50
2018-12-15T11:19:06.222Z,-0.20
2018-12-15T11:21:35.506Z,-0.30
2018-12-15T11:24:04.948Z,-0.10
2018-12-15T11:26:34.247Z,0.00
2018-12-15T11:29:03.665Z,-0.20
2018-12-15T11:31:32.992Z,0.00
2018-12-15T11:34:02.422Z,-0.10
2018-12-15T11:36:31.706Z,0.10
2018-12-15T11:39:00.963Z,0.20
2018-12-15T11:41:30.201Z,0.00
2018-12-15T11:43:59.479Z,0.00
2018-12-15T11:46:28.719Z,0.00
2018-12-15T11:48:58.026Z,-0.10
2018-12-15T11:51:27.317Z,-0.40
2018-12-15T11:53:56.576Z,-0.20
2018-12-15T11:56:25.969Z,-0.10
2018-12-15T11:58:55.334Z,-0.30
2018-12-15T12:01:24.548Z,-0.50
2018-12-15T12:03:53.844Z,-0.60
2018-12-15T12:06:23.093Z,-0.40
2018-12-15T12:08:52.396Z,-0.20
2018-12-15T12:11:21.696Z,0.10
2018-12-15T12:13:50.962Z,0.20
2018-12-15T12:16:20.262Z,0.30
2018-12-15T12:18:49.609Z,0.40
2018-12-15T12:21:18.860Z,0.10
2018-12-15T12:23:54.481Z,0.00
2018-12-15T12:26:23.790Z,-0.10
2018-12-15T12:28:54.044Z,0.10
2018-12-15T12:31:23.324Z,0.20
2018-12-15T12:33:52.597Z,0.40
2018-12-15T12:36:21.868Z,0.20
2018-12-15T12:38:52.229Z,0.30
2018-12-15T12:41:21.699Z,0.50
2018-12-15T12:43:50.989Z,0.20
2018-12-15T12:46:20.344Z,0.40
2018-12-15T12:48:49.657Z,0.30
2018-12-15T12:51:18.918Z,0.40
2018-12-15T12:53:48.209Z,0.40
2018-12-15T12:56:17.483Z,0.30
2018-12-15T12:58:46.826Z,0.40
2018-12-15T13:01:16.089Z,0.30
2018-12-15T13:03:45.435Z,0.30
2018-12-15T13:06:14.734Z,0.00
2018-12-15T13:08:44.012Z,0.00
2018-12-15T13:11:13.438Z,0.00
2018-12-15T13:13:42.784Z,0.30
2018-12-15T13:16:12.202Z,-0.10
2018-12-15T13:18:41.474Z,-0.10
2018-12-15T13:21:10.848Z,-0.20
2018-12-15T13:23:46.836Z,-0.40
2018-12-15T13:26:16.113Z,-0.30
2018-12-15T13:28:45.412Z,-0.30
2018-12-15T13:31:14.749Z,-0.30
2018-12-15T13:33:44.065Z,-0.30
2018-12-15T13:36:16.145Z,0.00
2018-12-15T13:38:45.597Z,-0.30
2018-12-15T13:41:14.898Z,-0.20
2018-12-15T13:43:44.299Z,-0.10
2018-12-15T13:46:13.718Z,-0.20
2018-12-15T13:48:43.013Z,-0.20
2018-12-15T13:51:12.327Z,0.00
2018-12-15T13:53:41.634Z,-0.10
2018-12-15T13:56:10.901Z,0.20
2018-12-15T13:58:40.164Z,0.40
2018-12-15T14:01:09.532Z,0.10
2018-12-15T14:03:38.826Z,0.00
2018-12-15T14:06:08.105Z,0.20
2018-12-15T14:08:37.547Z,0.40
2018-12-15T14:11:06.825Z,0.40
2018-12-15T14:13:36.152Z,0.10
2018-12-15T14:16:05.598Z,0.10
2018-12-15T14:18:34.880Z,0.10
2018-12-15T14:21:04.146Z,0.10
2018-12-15T14:23:33.414Z,-0.10
2018-12-15T14:26:05.098Z,-0.30
2018-12-15T14:28:34.484Z,-0.40
2018-12-15T14:31:03.838Z,-0.60
2018-12-15T14:33:33.145Z,-0.80
2018-12-15T14:36:02.405Z,-0.70
2018-12-15T14:38:31.683Z,-0.40
2018-12-15T14:41:00.956Z,-0.10
2018-12-15T14:43:30.262Z,-0.10
2018-12-15T14:45:59.588Z,0.00
2018-12-15T14:48:28.886Z,0.30
2018-12-15T14:50:58.224Z,0.30
2018-12-15T14:53:27.462Z,0.30
2018-12-15T14:55:56.776Z,0.10
2018-12-15T14:58:26.052Z,0.10
2018-12-15T15:00:55.309Z,0.00
2018-12-15T15:03:24.678Z,0.00
2018-12-15T15:05:53.928Z,0.20
2018-12-15T15:08:23.269Z,0.20
2018-12-15T15:10:52.533Z,0.30
2018-12-15T15:13:21.835Z,0.20
2018-12-15T15:15:51.141Z,0.10
2018-12-15T15:18:20.448Z,0.20
2018-12-15T15:20:49.706Z,-0.30
2018-12-15T15:23:19.012Z,-0.80
2018-12-15T15:25:48.521Z,-1.00
2018-12-15T15:28:18.662Z,-1.10
2018-12-15T15:30:47.983Z,-1.00
2018-12-15T15:33:17.306Z,-0.70
2018-12-15T15:35:46.604Z,-0.70
2018-12-15T15:38:15.889Z,-0.60
2018-12-15T15:40:45.157Z,-0.30
2018-12-15T15:43:14.549Z,-0.10
2018-12-15T15:45:43.881Z,-0.10
2018-12-15T15:48:13.166Z,-0.30
2018-12-15T15:50:43.172Z,-0.10
2018-12-15T15:53:12.457Z,0.00
2018-12-15T15:55:41.745Z,0.10
2018-12-15T15:58:10.999Z,-0.10
2018-12-15T16:00:40.324Z,-0.30
2018-12-15T16:03:09.558Z,-0.40
2018-12-15T16:05:38.867Z,-0.50
2018-12-15T16:08:08.134Z,-0.50
2018-12-15T16:10:38.388Z,-0.60
2018-12-15T16:13:07.787Z,-0.80
2018-12-15T16:15:37.153Z,-0.60
2018-12-15T16:18:06.555Z,-0.40
2018-12-15T16:20:35.852Z,-0.30
2018-12-15T16:23:05.104Z,-0.20
2018-12-15T16:25:34.405Z,-0.30
2018-12-15T16:28:03.712Z,-0.60
2018-12-15T16:30:33.041Z,-0.70
2018-12-15T16:33:02.370Z,-0.70
2018-12-15T16:35:31.714Z,-0.70
2018-12-15T16:38:00.989Z,-0.90
2018-12-15T16:40:30.271Z,-0.80
2018-12-15T16:42:59.534Z,-0.60
2018-12-15T16:45:28.881Z,-0.40
2018-12-15T16:47:58.142Z,-0.50
2018-12-15T16:50:27.433Z,-0.40
2018-12-15T16:52:56.878Z,-0.20
2018-12-15T16:55:27.653Z,-0.10
2018-12-15T16:57:57.114Z,-0.20
2018-12-15T17:00:26.429Z,-0.70
2018-12-15T17:02:55.859Z,-0.60
2018-12-15T17:05:25.144Z,-0.60
2018-12-15T17:07:54.417Z,-0.70
2018-12-15T17:10:23.784Z,-0.90
2018-12-15T17:12:53.406Z,-0.80
2018-12-15T17:15:22.668Z,-1.00
2018-12-15T17:17:51.982Z,-0.90
2018-12-15T17:20:21.292Z,-0.70
2018-12-15T17:22:50.587Z,-0.70
2018-12-15T17:25:19.840Z,-0.80
2018-12-15T17:27:49.127Z,-0.60
2018-12-15T17:30:18.445Z,-0.70
2018-12-15T17:32:47.733Z,-0.80
2018-12-15T17:35:16.996Z,-0.70
2018-12-15T17:37:46.290Z,-0.50
2018-12-15T17:40:15.609Z,-0.90
2018-12-15T17:42:44.936Z,-0.90
2018-12-15T17:45:14.277Z,-0.80
2018-12-15T17:47:43.585Z,-0.80
2018-12-15T17:50:12.849Z,-0.90
2018-12-15T17:52:42.120Z,-0.80
2018-12-15T17:55:11.397Z,-0.60
2018-12-15T17:57:40.755Z,-0.60
2018-12-15T18:00:12.251Z,-0.50
2018-12-15T18:02:41.651Z,-0.50
2018-12-15T18:05:10.997Z,-0.80
2018-12-15T18:07:40.262Z,-0.70
2018-12-15T18:10:09.851Z,-0.90
2018-12-15T18:12:39.158Z,-1.00
2018-12-15T18:15:08.742Z,-0.70
2018-12-15T18:17:38.107Z,-0.60
2018-12-15T18:20:09.342Z,-0.80
2018-12-15T18:22:38.654Z,-0.70
2018-12-15T18:25:08.369Z,-0.60
2018-12-15T18:27:37.647Z,-0.40
2018-12-15T18:30:09.713Z,-0.20
2018-12-15T18:32:39.170Z,-0.30
2018-12-15T18:35:08.528Z,-0.50
2018-12-15T18:37:37.815Z,-0.30
2018-12-15T18:40:08.264Z,-0.40
2018-12-15T18:42:37.577Z,-0.50
2018-12-15T18:45:07.805Z,-0.30
2018-12-15T18:47:37.163Z,-0.30
2018-12-15T18:50:08.444Z,-0.20
2018-12-15T18:52:38.773Z,-0.50
2018-12-15T18:55:08.546Z,-0.70
2018-12-15T18:57:38.866Z,-0.50
2018-12-15T19:00:10.877Z,-0.30
2018-12-15T19:02:40.179Z,-0.30
2018-12-15T19:05:09.512Z,-0.60
2018-12-15T19:07:38.782Z,-0.80
2018-12-15T19:10:08.257Z,-1.10
2018-12-15T19:12:37.583Z,-1.20
2018-12-15T19:15:08.179Z,-1.30
2018-12-15T19:17:37.479Z,-0.90
2018-12-15T19:20:07.333Z,-1.40
2018-12-15T19:22:36.777Z,-1.50
2018-12-15T19:25:06.505Z,-1.50
2018-12-15T19:27:35.830Z,-1.20
2018-12-15T19:30:06.183Z,-1.20
2018-12-15T19:32:35.447Z,-1.40
2018-12-15T19:35:05.623Z,-1.40
2018-12-15T19:37:34.974Z,-1.30
2018-12-15T19:40:04.802Z,-1.10
2018-12-15T19:42:34.100Z,-0.90
2018-12-15T19:45:03.976Z,-0.70
2018-12-15T19:47:33.332Z,-0.80
2018-12-15T19:50:02.684Z,-0.70
2018-12-15T19:52:32.010Z,-0.60
2018-12-15T19:55:01.258Z,-1.10
2018-12-15T19:57:30.545Z,-0.90
2018-12-15T19:59:59.818Z,-1.10
2018-12-15T20:02:29.128Z,-0.90
2018-12-15T20:04:58.410Z,-0.90
2018-12-15T20:07:27.707Z,-1.00
2018-12-15T20:09:56.998Z,-0.90
2018-12-15T20:12:26.263Z,-0.90
2018-12-15T20:14:55.585Z,-1.10
2018-12-15T20:17:24.854Z,-1.50
2018-12-15T20:19:54.150Z,-1.30
2018-12-15T20:22:23.556Z,-1.30
2018-12-15T20:24:52.824Z,-1.40
2018-12-15T20:27:22.121Z,-1.70
2018-12-15T20:29:51.462Z,-1.30
2018-12-15T20:32:20.784Z,-1.00
2018-12-15T20:34:50.072Z,-1.10
2018-12-15T20:37:19.314Z,-1.50
2018-12-15T20:39:48.636Z,-1.60
2018-12-15T20:42:17.884Z,-1.70
2018-12-15T20:44:47.186Z,-1.70
2018-12-15T20:47:16.449Z,-1.50
2018-12-15T20:49:45.698Z,-1.60
2018-12-15T20:52:14.973Z,-1.50
2018-12-15T20:54:44.307Z,-1.70
2018-12-15T20:57:13.593Z,-1.80
2018-12-15T20:59:42.883Z,-2.10
2018-12-15T21:02:12.152Z,-2.00
2018-12-15T21:04:41.430Z,-2.00
2018-12-15T21:07:10.844Z,-1.70
2018-12-15T21:09:40.129Z,-1.60
2018-12-15T21:12:09.387Z,-1.70
2018-12-15T21:14:38.676Z,-1.80
2018-12-15T21:17:07.949Z,-2.30
2018-12-15T21:19:37.252Z,-2.00
2018-12-15T21:22:10.349Z,-1.70
2018-12-15T21:24:39.652Z,-1.90
2018-12-15T21:27:08.976Z,-1.60
2018-12-15T21:29:38.283Z,-1.70
2018-12-15T21:32:07.547Z,-1.60
2018-12-15T21:34:36.822Z,-1.60
2018-12-15T21:37:06.168Z,-1.70
2018-12-15T21:39:35.397Z,-1.70
2018-12-15T21:42:04.702Z,-1.60
2018-12-15T21:44:34.138Z,-1.50
2018-12-15T21:47:03.481Z,-1.70
2018-12-15T21:49:34.022Z,-1.60
2018-12-15T21:52:03.268Z,-1.70
2018-12-15T21:54:33.333Z,-2.00
2018-12-15T21:57:02.623Z,-1.80
2018-12-15T21:59:31.892Z,-1.60
2018-12-15T22:02:01.219Z,-1.40
2018-12-15T22:04:30.534Z,-2.00
2018-12-15T22:06:59.799Z,-2.00
2018-12-15T22:09:29.090Z,-1.90
2018-12-15T22:11:58.365Z,-1.80
2018-12-15T22:14:27.649Z,-2.00
2018-12-15T22:16:56.933Z,-2.20
2018-12-15T22:19:26.217Z,-1.90
2018-12-15T22:21:55.510Z,-1.90
2018-12-15T22:24:24.785Z,-2.20
2018-12-15T22:26:54.074Z,-1.80
2018-12-15T22:29:23.316Z,-2.40
2018-12-15T22:31:52.601Z,-2.50
2018-12-15T22:34:21.867Z,-2.40
2018-12-15T22:36:51.123Z,-2.30
2018-12-15T22:39:20.441Z,-2.40
2018-12-15T22:41:49.713Z,-2.30
2018-12-15T22:44:19.034Z,-2.10
2018-12-15T22:46:48.333Z,-2.30
2018-12-15T22:49:17.644Z,-2.30
2018-12-15T22:51:46.945Z,-2.30
2018-12-15T22:54:16.193Z,-2.30
2018-12-15T22:56:45.452Z,-2.30
2018-12-15T22:59:14.734Z,-2.30
2018-12-15T23:01:45.911Z,-2.40
2018-12-15T23:04:15.772Z,-2.50
2018-12-15T23:06:45.040Z,-2.30
2018-12-15T23:09:14.310Z,-2.30
2018-12-15T23:11:43.610Z,-2.50
2018-12-15T23:14:12.911Z,-2.30
2018-12-15T23:16:42.335Z,-2.40
2018-12-15T23:19:12.283Z,-2.40
2018-12-15T23:21:41.556Z,-2.50
2018-12-15T23:24:10.839Z,-2.50
2018-12-15T23:26:40.794Z,-2.50
2018-12-15T23:29:10.049Z,-2.50
2018-12-15T23:31:39.357Z,-2.50
2018-12-15T23:34:08.613Z,-2.20
2018-12-15T23:36:37.948Z,-2.30
2018-12-15T23:39:08.209Z,-2.40
2018-12-15T23:41:37.476Z,-2.40
2018-12-15T23:44:06.832Z,-2.40
2018-12-15T23:46:36.226Z,-2.30
2018-12-15T23:49:05.502Z,-2.40
2018-12-15T23:51:34.772Z,-2.10
2018-12-15T23:54:04.214Z,-2.40
2018-12-15T23:56:33.561Z,-2.20
2018-12-15T23:59:02.840Z,-2.30
